createdAt,value
2017-11-09T00:00:17.083Z,42.00
2017-11-09T00:02:50.517Z,41.90
2017-11-09T00:05:23.869Z,42.00
2017-11-09T00:07:51.714Z,41.70
2017-11-09T00:10:20.361Z,42.10
2017-11-09T00:12:48.213Z,42.10
2017-11-09T00:15:15.994Z,42.40
2017-11-09T00:17:43.841Z,41.80
2017-11-09T00:20:11.621Z,41.90
2017-11-09T00:22:39.431Z,41.90
2017-11-09T00:25:07.264Z,41.90
2017-11-09T00:27:35.386Z,42.10
2017-11-09T00:30:03.209Z,42.30
2017-11-09T00:32:31.320Z,42.40
2017-11-09T00:34:59.190Z,42.60
2017-11-09T00:37:26.981Z,43.00
2017-11-09T00:39:54.804Z,43.70
2017-11-09T00:42:23.358Z,44.60
2017-11-09T00:44:51.151Z,44.60
2017-11-09T00:47:19.865Z,44.40
2017-11-09T00:49:48.522Z,44.00
2017-11-09T00:52:16.475Z,44.00
2017-11-09T00:54:44.250Z,43.50
2017-11-09T00:57:12.847Z,42.30
2017-11-09T00:59:40.630Z,42.30
2017-11-09T01:02:08.581Z,41.80
2017-11-09T01:04:36.586Z,41.40
2017-11-09T01:07:04.398Z,41.30
2017-11-09T01:09:32.966Z,40.50
2017-11-09T01:12:02.597Z,40.70
2017-11-09T01:14:31.174Z,41.10
2017-11-09T01:16:59.780Z,41.20
2017-11-09T01:19:27.569Z,41.20
2017-11-09T01:21:55.675Z,40.80
2017-11-09T01:24:23.532Z,40.30
2017-11-09T01:26:51.348Z,39.70
2017-11-09T01:29:19.169Z,39.40
2017-11-09T01:31:47.034Z,39.70
2017-11-09T01:34:14.841Z,39.60
2017-11-09T01:36:42.646Z,39.70
2017-11-09T01:39:10.499Z,38.70
2017-11-09T01:41:38.327Z,38.20
2017-11-09T01:44:06.999Z,38.50
2017-11-09T01:46:35.135Z,38.40
2017-11-09T01:49:03.008Z,38.30
2017-11-09T01:51:31.020Z,38.00
2017-11-09T01:53:58.925Z,36.70
2017-11-09T01:56:26.752Z,37.70
2017-11-09T01:58:55.361Z,36.90
2017-11-09T02:01:23.266Z,36.90
2017-11-09T02:03:51.123Z,36.70
2017-11-09T02:06:18.965Z,36.90
2017-11-09T02:08:46.783Z,36.80
2017-11-09T02:11:15.379Z,37.10
2017-11-09T02:13:43.246Z,37.10
2017-11-09T02:16:11.841Z,37.00
2017-11-09T02:18:39.661Z,37.00
2017-11-09T02:21:07.574Z,37.30
2017-11-09T02:23:35.417Z,37.00
2017-11-09T02:26:04.159Z,37.30
2017-11-09T02:28:32.404Z,37.30
2017-11-09T02:31:00.372Z,37.00
2017-11-09T02:33:28.505Z,37.00
2017-11-09T02:35:56.372Z,37.00
2017-11-09T02:38:24.256Z,36.80
2017-11-09T02:40:52.889Z,36.00
2017-11-09T02:43:20.749Z,36.00
2017-11-09T02:45:48.653Z,36.10
2017-11-09T02:48:16.493Z,36.40
2017-11-09T02:50:44.328Z,36.30
2017-11-09T02:53:12.133Z,36.40
2017-11-09T02:55:40.084Z,36.20
2017-11-09T02:58:08.102Z,36.40
2017-11-09T03:00:36.675Z,36.90
2017-11-09T03:03:04.683Z,36.80
2017-11-09T03:05:32.568Z,36.50
2017-11-09T03:08:01.135Z,36.60
2017-11-09T03:10:28.952Z,36.40
2017-11-09T03:12:57.784Z,35.70
2017-11-09T03:15:25.565Z,35.70
2017-11-09T03:17:53.414Z,35.50
2017-11-09T03:20:21.242Z,35.80
2017-11-09T03:22:49.093Z,35.70
2017-11-09T03:25:16.932Z,35.80
2017-11-09T03:27:44.789Z,35.30
2017-11-09T03:30:12.821Z,35.50
2017-11-09T03:32:41.476Z,34.70
2017-11-09T03:35:09.427Z,34.60
2017-11-09T03:37:37.311Z,34.60
2017-11-09T03:40:05.157Z,34.70
2017-11-09T03:42:33.011Z,34.60
2017-11-09T03:45:00.870Z,34.40
2017-11-09T03:47:28.755Z,34.50
2017-11-09T03:49:56.619Z,34.30
2017-11-09T03:52:24.478Z,34.70
2017-11-09T03:54:52.300Z,34.70
2017-11-09T03:57:20.902Z,35.20
2017-11-09T03:59:49.552Z,34.70
2017-11-09T04:02:17.485Z,34.70
2017-11-09T04:04:45.359Z,34.50
2017-11-09T04:07:13.201Z,35.10
2017-11-09T04:09:41.115Z,35.00
2017-11-09T04:12:08.953Z,35.00
2017-11-09T04:14:36.760Z,35.20
2017-11-09T04:17:04.589Z,35.30
2017-11-09T04:19:32.405Z,35.60
2017-11-09T04:22:01.018Z,34.70
2017-11-09T04:24:28.961Z,34.70
2017-11-09T04:26:57.525Z,35.00
2017-11-09T04:29:25.356Z,35.00
2017-11-09T04:31:54.274Z,35.10
2017-11-09T04:34:22.865Z,35.60
2017-11-09T04:36:50.674Z,35.00
2017-11-09T04:39:18.580Z,34.80
2017-11-09T04:41:46.447Z,34.60
2017-11-09T04:44:14.388Z,34.70
2017-11-09T04:46:42.315Z,34.60
2017-11-09T04:49:10.245Z,34.10
2017-11-09T04:51:38.130Z,34.00
2017-11-09T04:54:06.098Z,34.30
2017-11-09T04:56:34.034Z,33.80
2017-11-09T04:59:01.953Z,33.80
2017-11-09T05:01:29.793Z,33.40
2017-11-09T05:03:57.672Z,33.90
2017-11-09T05:06:26.293Z,33.70
2017-11-09T05:08:54.168Z,33.70
2017-11-09T05:11:22.007Z,33.70
2017-11-09T05:13:49.963Z,34.10
2017-11-09T05:16:17.874Z,33.60
2017-11-09T05:18:45.753Z,33.20
2017-11-09T05:21:13.873Z,32.50
2017-11-09T05:23:42.469Z,32.10
2017-11-09T05:26:11.077Z,32.20
2017-11-09T05:28:38.961Z,32.20
2017-11-09T05:31:06.839Z,32.10
2017-11-09T05:33:35.457Z,32.30
2017-11-09T05:36:04.153Z,32.10
2017-11-09T05:38:32.764Z,31.40
2017-11-09T05:41:00.718Z,31.40
2017-11-09T05:43:28.615Z,30.90
2017-11-09T05:45:56.521Z,31.10
2017-11-09T05:48:25.178Z,30.00
2017-11-09T05:50:53.105Z,30.00
2017-11-09T05:53:20.931Z,29.50
2017-11-09T05:55:49.644Z,30.30
2017-11-09T05:58:17.661Z,30.30
2017-11-09T06:00:45.649Z,30.10
2017-11-09T06:03:13.524Z,29.50
2017-11-09T06:05:41.470Z,30.00
2017-11-09T06:08:09.461Z,29.80
2017-11-09T06:10:38.047Z,29.20
2017-11-09T06:13:05.966Z,29.20
2017-11-09T06:15:33.851Z,29.20
2017-11-09T06:18:01.687Z,28.50
2017-11-09T06:20:29.501Z,28.60
2017-11-09T06:22:57.566Z,28.60
2017-11-09T06:25:25.506Z,28.50
2017-11-09T06:27:53.403Z,29.00
2017-11-09T06:30:21.258Z,28.60
2017-11-09T06:32:49.113Z,28.30
2017-11-09T06:35:16.966Z,28.50
2017-11-09T06:37:44.784Z,28.70
2017-11-09T06:40:13.417Z,28.90
2017-11-09T06:42:41.319Z,28.90
2017-11-09T06:45:09.972Z,29.20
2017-11-09T06:47:38.690Z,29.20
2017-11-09T06:50:06.582Z,29.10
2017-11-09T06:52:35.039Z,29.60
2017-11-09T06:55:02.904Z,29.50
2017-11-09T06:57:30.837Z,29.50
2017-11-09T06:59:58.752Z,29.70
2017-11-09T07:02:26.653Z,29.50
2017-11-09T07:04:54.480Z,29.70
2017-11-09T07:07:22.492Z,29.90
2017-11-09T07:09:50.306Z,29.80
2017-11-09T07:12:18.166Z,29.80
2017-11-09T07:14:46.080Z,30.00
2017-11-09T07:17:13.972Z,30.00
2017-11-09T07:19:42.649Z,30.10
2017-11-09T07:22:10.513Z,30.10
2017-11-09T07:24:38.383Z,30.40
2017-11-09T07:27:06.208Z,30.50
2017-11-09T07:29:35.339Z,30.30
2017-11-09T07:32:03.444Z,30.40
2017-11-09T07:34:32.553Z,30.50
2017-11-09T07:37:00.369Z,30.90
2017-11-09T07:39:28.836Z,30.80
2017-11-09T07:41:56.682Z,31.00
2017-11-09T07:44:25.291Z,30.80
2017-11-09T07:46:53.115Z,30.80
2017-11-09T07:49:21.010Z,30.40
2017-11-09T07:51:49.686Z,30.90
2017-11-09T07:54:18.378Z,31.10
2017-11-09T07:56:46.284Z,31.10
2017-11-09T07:59:15.106Z,31.50
2017-11-09T08:01:42.930Z,31.30
2017-11-09T08:04:10.996Z,30.80
2017-11-09T08:06:38.816Z,30.50
2017-11-09T08:09:07.419Z,30.80
2017-11-09T08:11:36.165Z,30.80
2017-11-09T08:14:04.060Z,30.30
2017-11-09T08:16:32.725Z,30.50
2017-11-09T08:19:00.640Z,30.40
2017-11-09T08:21:28.497Z,30.20
2017-11-09T08:23:56.975Z,30.00
2017-11-09T08:26:26.727Z,30.50
2017-11-09T08:28:56.984Z,30.50
2017-11-09T08:31:31.098Z,30.20
2017-11-09T08:33:58.944Z,30.20
2017-11-09T08:36:26.852Z,30.00
2017-11-09T08:38:55.470Z,31.10
2017-11-09T08:41:23.371Z,30.50
2017-11-09T08:43:51.377Z,30.10
2017-11-09T08:46:19.226Z,30.00
2017-11-09T08:48:47.830Z,29.90
2017-11-09T08:51:17.090Z,29.90
2017-11-09T08:53:44.946Z,29.50
2017-11-09T08:56:12.812Z,29.50
2017-11-09T08:58:40.795Z,30.00
2017-11-09T09:01:08.654Z,31.00
2017-11-09T09:03:36.503Z,32.30
2017-11-09T09:06:04.677Z,32.50
2017-11-09T09:08:32.701Z,32.60
2017-11-09T09:11:01.370Z,30.40
2017-11-09T09:13:30.067Z,29.90
2017-11-09T09:15:58.772Z,29.10
2017-11-09T09:18:27.273Z,29.20
2017-11-09T09:21:07.885Z,28.90
2017-11-09T09:23:35.874Z,29.00
2017-11-09T09:26:07.450Z,28.80
2017-11-09T09:28:37.927Z,29.00
2017-11-09T09:31:06.670Z,30.90
2017-11-09T09:33:46.767Z,30.90
2017-11-09T09:36:17.152Z,31.30
2017-11-09T09:39:05.773Z,33.40
2017-11-09T09:41:34.469Z,34.40
2017-11-09T09:44:02.440Z,34.40
2017-11-09T09:46:32.000Z,34.20
2017-11-09T09:48:59.953Z,33.20
2017-11-09T09:51:28.111Z,33.60
2017-11-09T09:53:56.308Z,32.90
2017-11-09T09:56:24.226Z,33.10
2017-11-09T09:58:52.141Z,33.80
2017-11-09T10:01:20.843Z,30.80
2017-11-09T10:03:48.805Z,30.80
2017-11-09T10:06:16.719Z,31.90
2017-11-09T10:08:44.639Z,33.40
2017-11-09T10:11:12.847Z,31.90
2017-11-09T10:13:41.601Z,30.20
2017-11-09T10:16:09.545Z,30.10
2017-11-09T10:18:37.688Z,29.20
2017-11-09T10:21:05.685Z,29.00
2017-11-09T10:23:33.817Z,29.40
2017-11-09T10:26:01.873Z,29.30
2017-11-09T10:28:29.877Z,29.70
2017-11-09T10:30:57.697Z,29.70
2017-11-09T10:33:25.544Z,29.20
2017-11-09T10:35:53.461Z,28.60
2017-11-09T10:38:21.402Z,29.10
2017-11-09T10:40:49.415Z,29.10
2017-11-09T10:43:17.289Z,29.10
2017-11-09T10:45:45.617Z,28.60
2017-11-09T10:48:13.494Z,28.60
2017-11-09T10:50:42.131Z,28.20
2017-11-09T10:53:10.198Z,28.20
2017-11-09T10:55:38.287Z,28.30
2017-11-09T10:58:06.211Z,27.90
2017-11-09T11:00:39.907Z,28.40
2017-11-09T11:03:08.634Z,29.50
2017-11-09T11:05:36.562Z,29.40
2017-11-09T11:08:04.528Z,28.90
2017-11-09T11:10:32.381Z,28.80
2017-11-09T11:13:01.186Z,29.10
2017-11-09T11:15:29.197Z,29.10
2017-11-09T11:17:57.325Z,28.90
2017-11-09T11:20:25.175Z,29.10
2017-11-09T11:22:53.892Z,28.80
2017-11-09T11:25:21.745Z,28.80
2017-11-09T11:27:50.078Z,28.30
2017-11-09T11:30:17.964Z,28.10
2017-11-09T11:32:46.157Z,27.80
2017-11-09T11:35:14.766Z,27.80
2017-11-09T11:37:42.826Z,27.70
2017-11-09T11:40:10.930Z,28.30
2017-11-09T11:42:38.756Z,29.10
2017-11-09T11:45:06.642Z,29.30
2017-11-09T11:47:34.522Z,29.20
2017-11-09T11:50:02.553Z,29.20
2017-11-09T11:52:31.303Z,27.70
2017-11-09T11:54:59.187Z,27.70
2017-11-09T11:57:27.870Z,27.30
2017-11-09T11:59:56.544Z,27.90
2017-11-09T12:02:24.437Z,27.90
2017-11-09T12:04:52.438Z,27.80
2017-11-09T12:07:20.361Z,27.50
2017-11-09T12:09:49.020Z,26.70
2017-11-09T12:12:16.841Z,26.60
2017-11-09T12:14:44.758Z,26.20
2017-11-09T12:17:12.645Z,25.50
2017-11-09T12:19:41.254Z,26.00
2017-11-09T12:22:09.070Z,25.90
2017-11-09T12:24:38.741Z,25.50
2017-11-09T12:27:06.578Z,25.40
2017-11-09T12:29:35.378Z,26.00
2017-11-09T12:32:03.252Z,25.90
2017-11-09T12:34:31.901Z,25.00
2017-11-09T12:37:00.709Z,24.90
2017-11-09T12:39:29.335Z,24.20
2017-11-09T12:41:57.170Z,24.20
2017-11-09T12:44:25.088Z,23.70
2017-11-09T12:46:52.990Z,20.80
2017-11-09T12:49:21.673Z,22.70
2017-11-09T12:51:50.388Z,23.40
2017-11-09T12:54:18.221Z,23.30
2017-11-09T12:56:46.923Z,22.60
2017-11-09T12:59:14.773Z,22.60
2017-11-09T13:01:43.639Z,23.10
2017-11-09T13:04:11.548Z,23.00
2017-11-09T13:06:40.193Z,24.30
2017-11-09T13:09:08.159Z,24.30
2017-11-09T13:11:36.151Z,25.00
2017-11-09T13:14:04.830Z,25.60
2017-11-09T13:16:33.157Z,25.50
2017-11-09T13:19:01.091Z,25.80
2017-11-09T13:21:29.801Z,26.20
2017-11-09T13:23:57.663Z,26.20
2017-11-09T13:26:25.578Z,26.50
2017-11-09T13:28:53.458Z,26.50
2017-11-09T13:31:21.381Z,26.60
2017-11-09T13:33:49.269Z,26.90
2017-11-09T13:36:17.138Z,26.90
2017-11-09T13:38:45.197Z,26.70
2017-11-09T13:41:13.050Z,26.40
2017-11-09T13:43:40.847Z,26.40
2017-11-09T13:46:08.669Z,26.70
2017-11-09T13:48:36.493Z,26.60
2017-11-09T13:51:04.379Z,26.00
2017-11-09T13:53:33.009Z,26.70
2017-11-09T13:56:00.890Z,26.70
2017-11-09T13:58:28.806Z,26.60
2017-11-09T14:00:56.807Z,27.00
2017-11-09T14:03:24.656Z,27.00
2017-11-09T14:05:52.711Z,26.90
2017-11-09T14:08:20.572Z,26.60
2017-11-09T14:10:49.222Z,26.30
2017-11-09T14:13:17.076Z,26.30
2017-11-09T14:15:44.901Z,27.00
2017-11-09T14:18:12.800Z,27.10
2017-11-09T14:20:40.645Z,27.50
2017-11-09T14:23:08.496Z,27.40
2017-11-09T14:25:36.405Z,27.70
2017-11-09T14:28:04.330Z,27.60
2017-11-09T14:30:32.257Z,27.70
2017-11-09T14:33:00.210Z,27.80
2017-11-09T14:35:28.122Z,27.60
2017-11-09T14:37:56.059Z,27.80
2017-11-09T14:40:24.033Z,28.00
2017-11-09T14:42:51.909Z,27.70
2017-11-09T14:45:19.884Z,27.90
2017-11-09T14:47:48.507Z,28.10
2017-11-09T14:50:16.413Z,28.10
2017-11-09T14:52:44.280Z,28.70
2017-11-09T14:55:12.123Z,29.00
2017-11-09T14:57:41.147Z,29.10
2017-11-09T15:00:09.022Z,29.10
2017-11-09T15:02:36.936Z,28.90
2017-11-09T15:05:04.807Z,28.50
2017-11-09T15:07:32.745Z,28.70
2017-11-09T15:10:00.774Z,29.40
2017-11-09T15:12:28.682Z,30.00
2017-11-09T15:14:57.415Z,30.40
2017-11-09T15:17:25.384Z,30.30
2017-11-09T15:19:53.389Z,31.00
2017-11-09T15:22:22.158Z,31.10
2017-11-09T15:24:50.134Z,31.10
2017-11-09T15:27:18.080Z,31.10
2017-11-09T15:29:46.033Z,31.20
2017-11-09T15:32:13.921Z,31.70
2017-11-09T15:34:41.889Z,31.80
2017-11-09T15:37:09.869Z,31.90
2017-11-09T15:39:38.869Z,32.90
2017-11-09T15:42:07.369Z,32.90
2017-11-09T15:44:38.055Z,34.60
2017-11-09T15:47:06.719Z,34.40
2017-11-09T15:49:34.609Z,34.40
2017-11-09T15:52:02.940Z,34.40
2017-11-09T15:54:30.821Z,34.60
2017-11-09T15:56:58.748Z,34.80
2017-11-09T15:59:27.555Z,35.10
2017-11-09T16:01:55.461Z,35.10
2017-11-09T16:04:23.285Z,35.40
2017-11-09T16:06:53.754Z,36.10
2017-11-09T16:09:21.749Z,36.00
2017-11-09T16:11:49.610Z,36.40
2017-11-09T16:14:17.587Z,36.00
2017-11-09T16:16:45.428Z,36.40
2017-11-09T16:19:16.346Z,36.80
2017-11-09T16:21:44.240Z,36.70
2017-11-09T16:24:12.159Z,36.20
2017-11-09T16:26:42.668Z,36.10
2017-11-09T16:29:11.355Z,35.20
2017-11-09T16:31:39.243Z,35.10
2017-11-09T16:34:07.223Z,35.40
2017-11-09T16:36:35.456Z,35.30
2017-11-09T16:39:04.262Z,35.70
2017-11-09T16:41:33.031Z,35.80
2017-11-09T16:44:00.899Z,35.70
2017-11-09T16:46:28.778Z,35.70
2017-11-09T16:48:57.083Z,35.70
2017-11-09T16:51:24.963Z,35.90
2017-11-09T16:53:53.619Z,35.70
2017-11-09T16:56:22.235Z,35.80
2017-11-09T16:58:51.908Z,35.70
2017-11-09T17:01:20.599Z,36.10
2017-11-09T17:03:48.442Z,36.10
2017-11-09T17:06:16.295Z,36.20
2017-11-09T17:08:44.196Z,36.20
2017-11-09T17:11:12.803Z,36.50
2017-11-09T17:13:40.673Z,36.50
2017-11-09T17:16:08.532Z,36.80
2017-11-09T17:18:36.365Z,36.70
2017-11-09T17:21:04.286Z,36.80
2017-11-09T17:23:32.381Z,37.50
2017-11-09T17:26:00.211Z,36.80
2017-11-09T17:28:28.139Z,36.80
2017-11-09T17:30:56.083Z,36.90
2017-11-09T17:33:23.974Z,36.60
2017-11-09T17:35:52.637Z,36.70
2017-11-09T17:38:20.511Z,36.60
2017-11-09T17:40:48.530Z,36.40
2017-11-09T17:43:16.658Z,36.40
2017-11-09T17:45:45.325Z,36.00
2017-11-09T17:48:14.130Z,36.00
2017-11-09T17:50:42.052Z,36.10
2017-11-09T17:53:10.267Z,36.20
2017-11-09T17:55:38.200Z,36.20
2017-11-09T17:58:06.245Z,36.20
2017-11-09T18:00:34.098Z,35.80
2017-11-09T18:03:05.718Z,35.60
2017-11-09T18:05:33.590Z,35.60
2017-11-09T18:08:01.770Z,35.80
2017-11-09T18:10:30.420Z,35.70
2017-11-09T18:12:58.403Z,35.60
2017-11-09T18:15:26.388Z,35.50
2017-11-09T18:17:54.499Z,35.10
2017-11-09T18:20:22.809Z,35.10
2017-11-09T18:22:50.686Z,35.20
2017-11-09T18:25:18.685Z,35.50
2017-11-09T18:27:46.614Z,35.40
2017-11-09T18:30:14.456Z,35.30
2017-11-09T18:32:42.300Z,35.30
2017-11-09T18:35:11.005Z,35.70
2017-11-09T18:37:38.833Z,35.70
2017-11-09T18:40:06.656Z,35.60
2017-11-09T18:42:34.502Z,35.60
2017-11-09T18:45:02.365Z,35.80
2017-11-09T18:47:30.267Z,35.80
2017-11-09T18:49:58.178Z,35.60
2017-11-09T18:52:26.810Z,36.00
2017-11-09T18:54:54.764Z,35.90
2017-11-09T18:57:22.720Z,35.80
2017-11-09T18:59:50.578Z,35.90
2017-11-09T19:02:18.460Z,36.00
2017-11-09T19:04:46.362Z,36.20
2017-11-09T19:07:14.304Z,36.20
2017-11-09T19:09:42.144Z,36.20
2017-11-09T19:12:10.785Z,36.20
2017-11-09T19:14:39.154Z,36.20
2017-11-09T19:17:07.010Z,36.20
2017-11-09T19:19:34.962Z,36.30
2017-11-09T19:22:02.815Z,36.10
2017-11-09T19:24:30.681Z,36.20
2017-11-09T19:26:58.989Z,36.20
2017-11-09T19:29:26.860Z,36.20
2017-11-09T19:31:54.805Z,36.40
2017-11-09T19:34:22.693Z,36.20
2017-11-09T19:36:50.610Z,36.40
2017-11-09T19:39:18.679Z,36.50
2017-11-09T19:41:47.378Z,36.30
2017-11-09T19:44:15.506Z,36.90
2017-11-09T19:46:43.415Z,36.60
2017-11-09T19:49:11.335Z,36.60
2017-11-09T19:51:39.261Z,36.40
2017-11-09T19:54:08.857Z,36.40
2017-11-09T19:56:37.229Z,36.80
2017-11-09T19:59:05.147Z,37.60
2017-11-09T20:01:33.038Z,38.30
2017-11-09T20:04:00.915Z,37.70
2017-11-09T20:06:29.638Z,37.10
2017-11-09T20:08:57.464Z,37.00
2017-11-09T20:11:26.160Z,38.00
2017-11-09T20:13:54.852Z,37.40
2017-11-09T20:16:23.451Z,37.40
2017-11-09T20:18:51.319Z,37.30
2017-11-09T20:21:19.205Z,36.60
2017-11-09T20:23:47.470Z,36.30
2017-11-09T20:26:15.398Z,36.00
2017-11-09T20:28:43.398Z,35.70
2017-11-09T20:31:11.308Z,35.70
2017-11-09T20:33:40.938Z,35.70
2017-11-09T20:36:08.785Z,35.90
2017-11-09T20:38:39.245Z,35.80
2017-11-09T20:41:07.354Z,35.90
2017-11-09T20:43:35.363Z,35.70
2017-11-09T20:46:03.205Z,35.80
2017-11-09T20:48:31.105Z,35.80
2017-11-09T20:50:58.998Z,35.70
2017-11-09T20:53:41.786Z,35.70
2017-11-09T20:56:09.676Z,35.80
2017-11-09T20:58:45.453Z,35.50
2017-11-09T21:01:13.415Z,35.50
2017-11-09T21:03:41.372Z,35.40
2017-11-09T21:06:09.352Z,35.20
2017-11-09T21:08:37.289Z,34.90
2017-11-09T21:11:12.028Z,35.40
2017-11-09T21:13:40.069Z,35.30
2017-11-09T21:16:07.921Z,35.30
2017-11-09T21:18:39.045Z,35.20
2017-11-09T21:21:09.434Z,34.90
2017-11-09T21:23:37.391Z,35.00
2017-11-09T21:26:06.034Z,34.80
2017-11-09T21:28:34.645Z,34.70
2017-11-09T21:31:07.141Z,34.70
2017-11-09T21:33:36.089Z,34.60
2017-11-09T21:36:03.994Z,34.60
2017-11-09T21:38:32.711Z,34.50
2017-11-09T21:41:00.673Z,34.50
2017-11-09T21:43:28.635Z,34.70
2017-11-09T21:45:56.864Z,34.90
2017-11-09T21:48:29.642Z,34.80
2017-11-09T21:51:00.689Z,34.70
2017-11-09T21:53:29.806Z,34.70
2017-11-09T21:55:59.141Z,34.40
2017-11-09T21:58:27.202Z,34.40
2017-11-09T22:00:55.394Z,34.50
2017-11-09T22:03:23.287Z,34.50
2017-11-09T22:05:51.345Z,33.80
2017-11-09T22:08:19.417Z,32.60
2017-11-09T22:10:47.314Z,31.50
2017-11-09T22:13:15.201Z,30.50
2017-11-09T22:15:43.102Z,30.00
2017-11-09T22:18:10.961Z,30.00
2017-11-09T22:20:39.059Z,29.80
2017-11-09T22:23:06.936Z,29.40
2017-11-09T22:25:34.836Z,29.90
2017-11-09T22:28:04.620Z,30.20
2017-11-09T22:30:32.727Z,30.20
2017-11-09T22:33:04.292Z,29.80
2017-11-09T22:35:33.953Z,29.50
2017-11-09T22:38:01.849Z,29.50
2017-11-09T22:40:30.460Z,29.40
2017-11-09T22:42:58.325Z,29.40
2017-11-09T22:45:26.305Z,29.20
2017-11-09T22:47:54.181Z,29.20
2017-11-09T22:50:21.982Z,29.30
2017-11-09T22:52:50.592Z,29.40
2017-11-09T22:55:19.270Z,29.50
2017-11-09T22:57:48.160Z,29.40
2017-11-09T23:00:17.001Z,29.10
2017-11-09T23:02:44.821Z,29.00
2017-11-09T23:05:13.433Z,29.00
2017-11-09T23:07:41.324Z,28.90
2017-11-09T23:10:09.271Z,28.70
2017-11-09T23:12:37.261Z,28.90
2017-11-09T23:15:05.103Z,28.80
2017-11-09T23:17:32.998Z,28.80
2017-11-09T23:20:00.879Z,28.70
2017-11-09T23:22:29.515Z,28.30
2017-11-09T23:24:57.641Z,28.40
2017-11-09T23:27:25.472Z,28.70
2017-11-09T23:29:53.486Z,28.70
2017-11-09T23:32:21.384Z,28.60
2017-11-09T23:34:49.688Z,28.80
2017-11-09T23:37:17.546Z,29.20
2017-11-09T23:39:45.503Z,28.90
2017-11-09T23:42:13.427Z,28.80
2017-11-09T23:44:41.293Z,28.90
2017-11-09T23:47:09.253Z,28.80
2017-11-09T23:49:37.116Z,29.00
2017-11-09T23:52:04.956Z,29.10
2017-11-09T23:54:32.805Z,29.10
2017-11-09T23:57:00.715Z,29.00
2017-11-09T23:59:28.809Z,29.10
